createdAt,value
2023-05-21T00:01:35.663Z,32.40
2023-05-21T00:04:06.373Z,30.80
2023-05-21T00:06:38.267Z,32.30
2023-05-21T00:09:06.777Z,30.60
2023-05-21T00:11:35.166Z,26.90
2023-05-21T00:14:03.529Z,28.90
2023-05-21T00:16:31.870Z,32.00
2023-05-21T00:19:00.228Z,27.70
2023-05-21T00:21:29.912Z,26.40
2023-05-21T00:23:59.029Z,29.00
2023-05-21T00:26:27.353Z,27.40
2023-05-21T00:28:57.360Z,29.00
2023-05-21T00:31:25.503Z,29.50
2023-05-21T00:33:54.202Z,31.50
2023-05-21T00:36:24.197Z,31.30
2023-05-21T00:38:52.806Z,27.80
2023-05-21T00:41:23.654Z,26.50
2023-05-21T00:43:53.151Z,27.10
2023-05-21T00:46:22.773Z,29.60
2023-05-21T00:48:52.512Z,28.90
2023-05-21T00:51:21.798Z,27.60
2023-05-21T00:53:53.177Z,27.80
2023-05-21T00:56:24.734Z,27.80
2023-05-21T00:58:59.631Z,28.00
2023-05-21T01:01:28.006Z,27.70
2023-05-21T01:03:58.034Z,28.90
2023-05-21T01:06:26.709Z,29.40
2023-05-21T01:08:57.132Z,28.00
2023-05-21T01:11:37.356Z,32.60
2023-05-21T01:14:10.219Z,29.20
2023-05-21T01:16:41.166Z,35.50
2023-05-21T01:19:14.420Z,32.30
2023-05-21T01:21:48.438Z,28.10
2023-05-21T01:24:16.962Z,28.30
2023-05-21T01:26:46.594Z,29.60
2023-05-21T01:29:15.186Z,33.70
2023-05-21T01:32:10.033Z,30.30
2023-05-21T01:35:06.803Z,26.40
2023-05-21T01:37:41.719Z,30.20
2023-05-21T01:42:58.623Z,39.30
2023-05-21T01:45:31.577Z,38.70
2023-05-21T01:48:00.923Z,42.80
2023-05-21T01:50:32.186Z,42.10
2023-05-21T01:53:06.099Z,39.60
2023-05-21T01:55:36.062Z,35.00
2023-05-21T01:58:04.616Z,33.50
2023-05-21T02:00:34.801Z,35.40
2023-05-21T02:03:03.493Z,35.20
2023-05-21T02:05:31.813Z,38.20
2023-05-21T02:08:00.274Z,39.10
2023-05-21T02:10:28.741Z,42.50
2023-05-21T02:12:57.017Z,41.00
2023-05-21T02:15:25.990Z,49.40
2023-05-21T02:17:55.923Z,40.40
2023-05-21T02:20:24.224Z,44.50
2023-05-21T02:22:52.623Z,44.40
2023-05-21T02:25:21.157Z,43.70
2023-05-21T02:27:53.812Z,40.70
2023-05-21T02:30:22.446Z,42.50
2023-05-21T02:32:50.908Z,44.20
2023-05-21T02:35:19.588Z,39.00
2023-05-21T02:37:49.131Z,42.10
2023-05-21T02:40:17.445Z,40.30
2023-05-21T02:42:45.897Z,39.30
2023-05-21T02:45:15.745Z,37.20
2023-05-21T02:47:44.598Z,38.00
2023-05-21T02:50:15.172Z,33.90
2023-05-21T02:52:46.985Z,35.60
2023-05-21T02:55:15.372Z,37.90
2023-05-21T02:57:43.930Z,37.70
2023-05-21T03:00:13.528Z,35.80
2023-05-21T03:02:43.490Z,34.20
2023-05-21T03:05:12.319Z,33.70
2023-05-21T03:07:42.080Z,31.00
2023-05-21T03:10:11.103Z,33.20
2023-05-21T03:12:39.457Z,34.70
2023-05-21T03:15:08.333Z,37.50
2023-05-21T03:17:36.813Z,40.00
2023-05-21T03:20:05.843Z,34.90
2023-05-21T03:22:34.663Z,37.60
2023-05-21T03:25:05.708Z,41.80
2023-05-21T03:27:33.955Z,48.00
2023-05-21T03:30:06.825Z,42.80
2023-05-21T03:32:41.576Z,46.50
2023-05-21T03:35:11.247Z,40.10
2023-05-21T03:37:39.772Z,39.40
2023-05-21T03:40:08.723Z,38.30
2023-05-21T03:42:37.209Z,40.20
2023-05-21T03:45:06.675Z,41.10
2023-05-21T03:47:58.442Z,40.20
2023-05-21T03:50:28.060Z,40.00
2023-05-21T03:52:56.328Z,39.10
2023-05-21T03:55:25.306Z,40.00
2023-05-21T03:57:53.607Z,38.10
2023-05-21T04:00:24.488Z,39.80
2023-05-21T04:02:53.199Z,39.20
2023-05-21T04:05:21.733Z,41.00
2023-05-21T04:07:50.636Z,39.50
2023-05-21T04:10:23.332Z,43.70
2023-05-21T04:12:52.771Z,40.30
2023-05-21T04:15:23.389Z,37.90
2023-05-21T04:17:52.740Z,38.10
2023-05-21T04:20:21.579Z,40.00
2023-05-21T04:22:50.147Z,39.70
2023-05-21T04:25:20.485Z,38.70
2023-05-21T04:27:50.330Z,39.20
2023-05-21T04:30:22.823Z,40.70
2023-05-21T04:32:52.848Z,45.40
2023-05-21T04:35:21.741Z,40.90
2023-05-21T04:37:50.651Z,44.10
2023-05-21T04:40:24.495Z,40.90
2023-05-21T04:42:53.082Z,39.80
2023-05-21T04:45:24.768Z,37.10
2023-05-21T04:47:53.980Z,37.20
2023-05-21T04:50:23.294Z,36.30
2023-05-21T04:52:51.593Z,34.90
2023-05-21T04:55:20.140Z,36.90
2023-05-21T04:57:48.490Z,41.20
2023-05-21T05:00:17.725Z,34.20
2023-05-21T05:02:47.359Z,40.10
2023-05-21T05:05:15.988Z,31.80
2023-05-21T05:07:44.348Z,33.60
2023-05-21T05:10:12.722Z,34.50
2023-05-21T05:12:41.162Z,38.00
2023-05-21T05:15:09.809Z,27.90
2023-05-21T05:17:40.057Z,28.80
2023-05-21T05:20:10.232Z,29.00
2023-05-21T05:22:39.283Z,28.10
2023-05-21T05:25:08.045Z,29.40
2023-05-21T05:27:38.382Z,30.20
2023-05-21T05:30:07.968Z,28.90
2023-05-21T05:32:36.662Z,27.10
2023-05-21T05:35:05.502Z,25.60
2023-05-21T05:37:34.138Z,26.00
2023-05-21T05:40:02.500Z,25.70
2023-05-21T05:42:31.042Z,24.30
2023-05-21T05:45:00.399Z,24.50
2023-05-21T05:47:29.027Z,24.80
2023-05-21T05:49:59.353Z,22.90
2023-05-21T05:52:27.722Z,22.40
2023-05-21T05:54:55.987Z,19.90
2023-05-21T05:57:24.248Z,18.30
2023-05-21T05:59:54.031Z,23.00
2023-05-21T06:02:22.475Z,27.80
2023-05-21T06:04:50.820Z,22.50
2023-05-21T06:07:19.577Z,19.10
2023-05-21T06:09:47.857Z,17.10
2023-05-21T06:12:16.697Z,18.90
2023-05-21T06:14:46.676Z,17.40
2023-05-21T06:17:15.547Z,16.80
2023-05-21T06:19:45.341Z,21.20
2023-05-21T06:22:13.689Z,20.00
2023-05-21T06:24:42.068Z,16.90
2023-05-21T06:27:11.250Z,16.10
2023-05-21T06:29:41.041Z,18.70
2023-05-21T06:32:09.736Z,18.40
2023-05-21T06:34:38.235Z,19.80
2023-05-21T06:37:06.596Z,19.60
2023-05-21T06:39:35.377Z,16.40
2023-05-21T06:42:04.455Z,18.00
2023-05-21T06:44:53.458Z,18.90
2023-05-21T06:47:27.566Z,17.30
2023-05-21T06:49:56.698Z,16.30
2023-05-21T06:52:27.255Z,14.20
2023-05-21T06:54:56.231Z,14.80
2023-05-21T06:57:25.199Z,15.80
2023-05-21T06:59:53.562Z,16.60
2023-05-21T07:02:21.894Z,17.00
2023-05-21T07:04:50.500Z,18.40
2023-05-21T07:07:18.917Z,17.30
2023-05-21T07:09:47.364Z,13.10
2023-05-21T07:12:16.287Z,14.60
2023-05-21T07:14:44.770Z,16.00
2023-05-21T07:17:13.022Z,14.60
2023-05-21T07:19:41.372Z,14.10
2023-05-21T07:22:12.671Z,16.80
2023-05-21T07:24:41.617Z,15.10
2023-05-21T07:27:24.709Z,16.80
2023-05-21T07:29:54.016Z,13.00
2023-05-21T07:32:23.002Z,15.70
2023-05-21T07:34:54.194Z,15.20
2023-05-21T07:37:25.631Z,18.20
2023-05-21T07:39:57.073Z,13.40
2023-05-21T07:42:26.841Z,16.50
2023-05-21T07:44:56.163Z,17.60
2023-05-21T07:47:24.816Z,14.40
2023-05-21T07:49:53.380Z,16.40
2023-05-21T07:52:22.387Z,16.80
2023-05-21T07:54:50.803Z,15.00
2023-05-21T07:57:19.517Z,15.40
2023-05-21T07:59:53.288Z,15.00
2023-05-21T08:02:22.669Z,14.30
2023-05-21T08:04:52.696Z,12.90
2023-05-21T08:07:22.305Z,16.60
2023-05-21T08:09:51.597Z,14.70
2023-05-21T08:12:20.086Z,15.60
2023-05-21T08:14:48.447Z,12.50
2023-05-21T08:17:17.464Z,12.10
2023-05-21T08:19:45.853Z,11.80
2023-05-21T08:22:14.191Z,11.30
2023-05-21T08:24:44.121Z,14.00
2023-05-21T08:27:12.389Z,10.90
2023-05-21T08:29:40.606Z,10.90
2023-05-21T08:32:10.279Z,13.90
2023-05-21T08:34:38.753Z,12.20
2023-05-21T08:37:21.689Z,11.60
2023-05-21T08:40:01.619Z,15.10
2023-05-21T08:42:37.146Z,14.40
2023-05-21T08:45:07.817Z,9.80
2023-05-21T08:47:37.205Z,10.80
2023-05-21T08:50:09.811Z,11.00
2023-05-21T08:52:38.306Z,14.40
2023-05-21T08:55:08.593Z,15.20
2023-05-21T08:57:43.884Z,13.90
2023-05-21T09:00:12.930Z,11.70
2023-05-21T09:02:44.220Z,10.70
2023-05-21T09:05:15.673Z,8.70
2023-05-21T09:07:55.945Z,10.60
2023-05-21T09:10:55.930Z,9.40
2023-05-21T09:13:29.356Z,13.30
2023-05-21T09:15:57.804Z,9.10
2023-05-21T09:18:29.617Z,14.80
2023-05-21T09:21:25.282Z,6.10
2023-05-21T09:26:26.884Z,8.40
2023-05-21T09:29:02.464Z,8.60
2023-05-21T09:31:33.011Z,11.80
2023-05-21T09:34:03.917Z,13.40
2023-05-21T09:36:38.723Z,6.80
2023-05-21T09:39:07.045Z,6.60
2023-05-21T09:41:38.473Z,8.90
2023-05-21T09:44:06.957Z,11.50
2023-05-21T09:46:41.107Z,13.50
2023-05-21T09:49:31.461Z,10.70
2023-05-21T09:52:01.124Z,11.50
2023-05-21T09:54:34.182Z,11.90
2023-05-21T09:57:02.993Z,7.60
2023-05-21T09:59:39.198Z,5.40
2023-05-21T10:02:24.718Z,6.90
2023-05-21T10:04:54.866Z,4.40
2023-05-21T10:07:26.638Z,8.70
2023-05-21T10:09:57.311Z,9.50
2023-05-21T10:12:27.812Z,8.70
2023-05-21T10:15:09.746Z,5.10
2023-05-21T10:17:39.775Z,5.00
2023-05-21T10:20:11.190Z,6.60
2023-05-21T10:22:41.198Z,7.00
2023-05-21T10:25:10.375Z,8.00
2023-05-21T10:27:39.587Z,6.80
2023-05-21T10:30:08.834Z,6.10
2023-05-21T10:32:40.273Z,5.30
2023-05-21T10:35:10.304Z,6.70
2023-05-21T10:37:39.706Z,10.20
2023-05-21T10:40:08.767Z,8.00
2023-05-21T10:43:26.536Z,7.80
2023-05-21T10:46:36.833Z,7.50
2023-05-21T10:49:25.627Z,6.70
2023-05-21T10:52:18.477Z,9.50
2023-05-21T10:55:17.837Z,8.90
2023-05-21T10:57:49.007Z,7.60
2023-05-21T11:00:20.691Z,12.20
2023-05-21T11:02:52.350Z,9.10
2023-05-21T11:05:52.756Z,13.10
2023-05-21T11:08:23.670Z,9.10
2023-05-21T11:10:58.457Z,3.80
2023-05-21T11:13:31.481Z,5.10
2023-05-21T11:15:59.910Z,7.50
2023-05-21T11:18:34.281Z,10.70
2023-05-21T11:21:17.263Z,9.30
2023-05-21T11:23:58.422Z,7.30
2023-05-21T11:26:29.600Z,5.30
2023-05-21T11:29:09.658Z,5.70
2023-05-21T11:31:39.489Z,11.90
2023-05-21T11:34:11.329Z,6.00
2023-05-21T11:36:45.754Z,11.30
2023-05-21T11:39:22.376Z,7.30
2023-05-21T11:42:04.146Z,7.10
2023-05-21T11:44:47.740Z,9.80
2023-05-21T11:47:18.357Z,6.80
2023-05-21T11:49:47.209Z,8.10
2023-05-21T11:52:15.813Z,8.00
2023-05-21T11:54:55.526Z,9.30
2023-05-21T11:57:31.350Z,7.30
2023-05-21T12:00:01.896Z,8.90
2023-05-21T12:02:32.767Z,8.10
2023-05-21T12:05:01.453Z,5.90
2023-05-21T12:07:30.100Z,7.10
2023-05-21T12:09:59.126Z,7.20
2023-05-21T12:12:35.621Z,6.60
2023-05-21T12:15:11.637Z,6.80
2023-05-21T12:17:40.013Z,5.10
2023-05-21T12:20:10.981Z,7.50
2023-05-21T12:22:43.825Z,9.40
2023-05-21T12:25:12.430Z,10.70
2023-05-21T12:27:42.322Z,9.90
2023-05-21T12:30:11.207Z,5.40
2023-05-21T12:32:44.621Z,14.70
2023-05-21T12:35:24.421Z,6.90
2023-05-21T12:37:53.326Z,8.70
2023-05-21T12:40:22.539Z,8.20
2023-05-21T12:42:51.782Z,9.00
2023-05-21T12:45:22.823Z,6.80
2023-05-21T12:47:56.597Z,5.50
2023-05-21T12:50:26.780Z,8.00
2023-05-21T12:52:56.617Z,9.70
2023-05-21T12:55:28.730Z,7.70
2023-05-21T12:58:03.984Z,6.10
2023-05-21T13:00:33.562Z,7.30
2023-05-21T13:03:04.913Z,8.20
2023-05-21T13:05:33.473Z,5.30
2023-05-21T13:08:01.858Z,6.50
2023-05-21T13:10:30.503Z,5.50
2023-05-21T13:12:58.901Z,7.90
2023-05-21T13:15:27.242Z,4.70
2023-05-21T13:17:57.211Z,6.30
2023-05-21T13:20:27.492Z,7.90
2023-05-21T13:22:56.828Z,7.90
2023-05-21T13:25:29.825Z,6.00
2023-05-21T13:28:03.060Z,6.30
2023-05-21T13:30:33.536Z,5.90
2023-05-21T13:33:02.839Z,8.50
2023-05-21T13:35:31.299Z,10.00
2023-05-21T13:37:59.652Z,4.90
2023-05-21T13:40:28.331Z,13.10
2023-05-21T13:42:56.890Z,14.20
2023-05-21T13:45:29.459Z,8.10
2023-05-21T13:47:58.351Z,11.70
2023-05-21T13:50:26.892Z,9.90
2023-05-21T13:52:55.458Z,9.80
2023-05-21T13:55:23.790Z,8.30
2023-05-21T13:57:52.222Z,9.90
2023-05-21T14:00:20.716Z,5.20
2023-05-21T14:02:50.169Z,9.40
2023-05-21T14:05:18.868Z,4.80
2023-05-21T14:07:48.488Z,8.20
2023-05-21T14:10:17.142Z,9.10
2023-05-21T14:12:46.394Z,13.20
2023-05-21T14:15:14.956Z,8.10
2023-05-21T14:17:43.285Z,6.90
2023-05-21T14:20:12.117Z,7.70
2023-05-21T14:22:40.403Z,8.90
2023-05-21T14:25:09.288Z,12.60
2023-05-21T14:27:38.511Z,12.40
2023-05-21T14:30:08.028Z,4.10
2023-05-21T14:32:36.668Z,4.50
2023-05-21T14:35:05.692Z,10.30
2023-05-21T14:37:34.108Z,9.70
2023-05-21T14:40:03.450Z,4.50
2023-05-21T14:42:32.079Z,4.00
2023-05-21T14:45:16.870Z,11.20
2023-05-21T14:47:47.853Z,8.70
2023-05-21T14:50:17.502Z,6.10
2023-05-21T14:52:46.479Z,3.70
2023-05-21T14:55:17.071Z,9.20
2023-05-21T14:57:45.617Z,11.10
2023-05-21T15:00:15.239Z,7.30
2023-05-21T15:02:43.702Z,7.00
2023-05-21T15:05:12.493Z,10.80
2023-05-21T15:07:40.841Z,39.30
2023-05-21T15:10:10.178Z,25.30
2023-05-21T15:12:40.202Z,24.90
2023-05-21T15:15:08.958Z,13.00
2023-05-21T15:17:37.315Z,22.10
2023-05-21T15:20:06.770Z,63.50
2023-05-21T15:22:35.664Z,23.30
2023-05-21T15:25:05.025Z,23.20
2023-05-21T15:27:34.332Z,33.90
2023-05-21T15:30:04.262Z,16.30
2023-05-21T15:32:32.595Z,14.00
2023-05-21T15:35:01.096Z,24.50
2023-05-21T15:37:32.343Z,15.80
2023-05-21T15:40:01.081Z,16.80
2023-05-21T15:42:31.753Z,18.90
2023-05-21T15:45:00.332Z,40.00
2023-05-21T15:47:28.686Z,36.70
2023-05-21T15:49:59.058Z,51.30
2023-05-21T15:52:27.597Z,31.00
2023-05-21T15:54:56.377Z,21.70
2023-05-21T15:57:24.780Z,49.20
2023-05-21T15:59:53.190Z,32.90
2023-05-21T16:02:21.663Z,73.10
2023-05-21T16:04:51.785Z,23.50
2023-05-21T16:07:20.216Z,16.30
2023-05-21T16:09:48.515Z,12.00
2023-05-21T16:12:17.751Z,11.00
2023-05-21T16:14:50.304Z,15.30
2023-05-21T16:17:19.978Z,17.70
2023-05-21T16:19:48.458Z,27.30
2023-05-21T16:22:17.353Z,31.00
2023-05-21T16:24:45.724Z,77.10
2023-05-21T16:27:14.120Z,247.20
2023-05-21T16:29:42.547Z,74.10
2023-05-21T16:32:13.202Z,41.10
2023-05-21T16:34:41.728Z,21.40
2023-05-21T16:37:10.121Z,24.30
2023-05-21T16:39:38.753Z,24.60
2023-05-21T16:42:07.028Z,9.30
2023-05-21T16:44:37.121Z,19.10
2023-05-21T16:47:05.822Z,15.50
2023-05-21T16:49:34.103Z,33.90
2023-05-21T16:52:03.440Z,15.70
2023-05-21T16:54:31.770Z,11.40
2023-05-21T16:57:00.160Z,13.10
2023-05-21T16:59:29.126Z,8.80
2023-05-21T17:01:57.480Z,11.30
2023-05-21T17:04:25.820Z,24.20
2023-05-21T17:06:54.216Z,14.80
2023-05-21T17:09:22.594Z,18.50
2023-05-21T17:11:50.943Z,24.50
2023-05-21T17:14:30.236Z,19.00
2023-05-21T17:17:02.645Z,17.20
2023-05-21T17:19:31.300Z,16.10
2023-05-21T17:21:59.765Z,29.20
2023-05-21T17:24:28.169Z,18.30
2023-05-21T17:26:56.674Z,12.10
2023-05-21T17:29:25.068Z,18.40
2023-05-21T17:31:53.597Z,33.10
2023-05-21T17:34:24.754Z,22.60
2023-05-21T17:36:54.534Z,24.10
2023-05-21T17:39:23.132Z,30.20
2023-05-21T17:41:51.981Z,21.60
2023-05-21T17:44:20.409Z,18.00
2023-05-21T17:46:51.163Z,11.50
2023-05-21T17:49:19.572Z,11.20
2023-05-21T17:51:48.151Z,12.10
2023-05-21T17:54:16.616Z,9.60
2023-05-21T17:56:46.452Z,7.90
2023-05-21T17:59:16.217Z,5.50
2023-05-21T18:01:44.633Z,9.20
2023-05-21T18:04:13.470Z,5.40
2023-05-21T18:06:43.081Z,5.80
2023-05-21T18:09:14.389Z,7.90
2023-05-21T18:11:44.739Z,22.40
2023-05-21T18:14:13.192Z,11.50
2023-05-21T18:16:41.633Z,9.50
2023-05-21T18:19:10.201Z,9.00
2023-05-21T18:21:38.827Z,12.00
2023-05-21T18:24:07.500Z,12.00
2023-05-21T18:26:36.048Z,7.10
2023-05-21T18:29:04.463Z,5.80
2023-05-21T18:31:32.801Z,10.70
2023-05-21T18:34:01.168Z,7.50
2023-05-21T18:36:29.581Z,10.80
2023-05-21T18:38:57.811Z,7.40
2023-05-21T18:41:26.583Z,6.90
2023-05-21T18:43:55.188Z,9.50
2023-05-21T18:46:23.755Z,9.20
2023-05-21T18:48:52.180Z,13.50
2023-05-21T18:51:20.578Z,13.90
2023-05-21T18:53:48.810Z,12.80
2023-05-21T18:56:17.370Z,9.00
2023-05-21T18:58:45.844Z,16.20
2023-05-21T19:01:14.250Z,7.60
2023-05-21T19:03:42.776Z,12.30
2023-05-21T19:06:13.947Z,14.20
2023-05-21T19:08:42.291Z,16.20
2023-05-21T19:11:12.183Z,15.60
2023-05-21T19:13:40.823Z,13.90
2023-05-21T19:16:11.448Z,13.40
2023-05-21T19:18:44.597Z,17.50
2023-05-21T19:21:13.788Z,19.00
2023-05-21T19:23:52.582Z,11.50
2023-05-21T19:26:22.892Z,13.50
2023-05-21T19:28:53.794Z,11.00
2023-05-21T19:31:23.526Z,11.20
2023-05-21T19:33:52.379Z,12.00
2023-05-21T19:36:22.025Z,12.30
2023-05-21T19:38:50.911Z,16.60
2023-05-21T19:41:22.213Z,10.30
2023-05-21T19:43:50.494Z,12.10
2023-05-21T19:46:20.467Z,12.00
2023-05-21T19:48:50.745Z,15.90
2023-05-21T19:51:19.177Z,18.40
2023-05-21T19:53:47.430Z,13.10
2023-05-21T19:56:16.457Z,13.80
2023-05-21T19:58:47.792Z,17.50
2023-05-21T20:01:16.925Z,16.40
2023-05-21T20:03:46.367Z,11.60
2023-05-21T20:06:17.185Z,13.20
2023-05-21T20:08:45.948Z,10.10
2023-05-21T20:11:14.313Z,12.10
2023-05-21T20:13:42.728Z,13.00
2023-05-21T20:16:12.783Z,16.80
2023-05-21T20:18:41.720Z,9.60
2023-05-21T20:21:10.608Z,9.70
2023-05-21T20:23:39.077Z,9.90
2023-05-21T20:26:07.429Z,11.10
2023-05-21T20:28:36.557Z,8.00
2023-05-21T20:31:05.210Z,12.10
2023-05-21T20:33:38.713Z,15.60
2023-05-21T20:36:08.719Z,11.20
2023-05-21T20:38:38.240Z,10.70
2023-05-21T20:41:07.454Z,11.10
2023-05-21T20:43:37.488Z,11.80
2023-05-21T20:46:06.191Z,11.10
2023-05-21T20:48:35.366Z,10.30
2023-05-21T20:51:06.242Z,9.50
2023-05-21T20:53:37.170Z,11.80
2023-05-21T20:56:08.073Z,10.10
2023-05-21T20:58:36.878Z,12.90
2023-05-21T21:01:05.263Z,12.20
2023-05-21T21:03:34.408Z,12.20
2023-05-21T21:06:04.491Z,9.40
2023-05-21T21:08:34.914Z,11.20
2023-05-21T21:11:03.245Z,12.80
2023-05-21T21:13:31.589Z,13.70
2023-05-21T21:15:59.970Z,12.70
2023-05-21T21:18:28.335Z,8.00
2023-05-21T21:20:56.627Z,10.70
2023-05-21T21:23:27.918Z,9.70
2023-05-21T21:25:57.595Z,10.10
2023-05-21T21:28:26.029Z,13.20
2023-05-21T21:30:54.432Z,13.70
2023-05-21T21:33:24.581Z,12.70
2023-05-21T21:35:53.061Z,10.60
2023-05-21T21:38:21.609Z,10.80
2023-05-21T21:40:50.106Z,11.50
2023-05-21T21:43:18.614Z,11.10
2023-05-21T21:45:46.928Z,11.50
2023-05-21T21:48:16.703Z,10.20
2023-05-21T21:50:45.411Z,12.90
2023-05-21T21:53:14.191Z,12.50
2023-05-21T21:55:42.569Z,10.40
2023-05-21T21:58:11.448Z,15.20
2023-05-21T22:00:40.331Z,9.30
2023-05-21T22:03:08.968Z,10.20
2023-05-21T22:05:38.357Z,10.90
2023-05-21T22:08:06.663Z,11.00
2023-05-21T22:10:38.238Z,13.40
2023-05-21T22:13:07.671Z,9.90
2023-05-21T22:15:36.102Z,12.10
2023-05-21T22:18:04.640Z,10.60
2023-05-21T22:20:35.922Z,12.20
2023-05-21T22:23:04.569Z,11.70
2023-05-21T22:25:32.946Z,13.30
2023-05-21T22:28:01.288Z,14.90
2023-05-21T22:30:29.729Z,14.40
2023-05-21T22:32:58.156Z,12.30
2023-05-21T22:35:26.857Z,12.90
2023-05-21T22:37:55.166Z,14.70
2023-05-21T22:40:23.561Z,15.30
2023-05-21T22:42:51.923Z,16.10
2023-05-21T22:45:21.906Z,14.20
2023-05-21T22:47:52.039Z,12.90
2023-05-21T22:50:20.837Z,12.30
2023-05-21T22:52:49.425Z,14.00
2023-05-21T22:55:17.945Z,13.80
2023-05-21T22:57:46.346Z,10.70
2023-05-21T23:00:14.954Z,14.20
2023-05-21T23:02:43.423Z,12.10
2023-05-21T23:05:11.777Z,13.10
2023-05-21T23:07:41.521Z,12.40
2023-05-21T23:10:10.198Z,18.40
2023-05-21T23:12:38.537Z,12.90
2023-05-21T23:15:07.433Z,11.30
2023-05-21T23:17:36.067Z,22.00
2023-05-21T23:20:07.481Z,15.90
2023-05-21T23:22:36.070Z,8.60
2023-05-21T23:25:05.207Z,12.80
2023-05-21T23:27:33.838Z,14.70
2023-05-21T23:30:02.208Z,9.70
2023-05-21T23:32:30.591Z,11.40
2023-05-21T23:34:59.001Z,15.50
2023-05-21T23:37:27.339Z,13.60
2023-05-21T23:39:55.650Z,13.70
2023-05-21T23:42:23.972Z,13.10
2023-05-21T23:44:52.392Z,15.60
2023-05-21T23:47:20.698Z,13.80
2023-05-21T23:49:49.027Z,13.80
2023-05-21T23:52:18.470Z,19.20
2023-05-21T23:54:46.795Z,16.60
2023-05-21T23:57:15.170Z,18.10
2023-05-21T23:59:43.581Z,15.70
